createdAt,value
2022-09-02T00:01:39.627Z,96337.19
2022-09-02T00:04:10.664Z,96337.81
2022-09-02T00:06:37.455Z,96327.47
2022-09-02T00:09:07.468Z,96336.13
2022-09-02T00:11:36.047Z,96334.69
2022-09-02T00:14:05.970Z,96325.81
2022-09-02T00:16:33.598Z,96322.31
2022-09-02T00:19:02.635Z,96332.38
2022-09-02T00:21:31.096Z,96318.97
2022-09-02T00:23:57.766Z,96323.06
2022-09-02T00:26:24.752Z,96318.56
2022-09-02T00:28:56.159Z,96318.34
2022-09-02T00:31:27.681Z,96315.22
2022-09-02T00:33:54.987Z,96317.91
2022-09-02T00:36:22.043Z,96314.19
2022-09-02T00:38:49.338Z,96310.50
2022-09-02T00:41:16.116Z,96310.06
2022-09-02T00:43:53.663Z,96308.59
2022-09-02T00:46:23.805Z,96304.03
2022-09-02T00:49:00.464Z,96301.13
2022-09-02T00:51:31.993Z,96308.13
2022-09-02T00:53:59.574Z,96304.22
2022-09-02T00:56:30.201Z,96304.69
2022-09-02T00:58:58.134Z,96299.72
2022-09-02T01:01:25.617Z,96299.25
2022-09-02T01:03:52.810Z,96307.31
2022-09-02T01:06:25.226Z,96307.50
2022-09-02T01:08:59.496Z,96310.00
2022-09-02T01:11:32.518Z,96311.84
2022-09-02T01:13:59.717Z,96303.63
2022-09-02T01:16:44.162Z,96301.94
2022-09-02T01:19:23.107Z,96307.03
2022-09-02T01:21:55.225Z,96305.78
2022-09-02T01:24:26.261Z,96304.94
2022-09-02T01:26:55.650Z,96306.97
2022-09-02T01:29:24.075Z,96298.13
2022-09-02T01:31:51.710Z,96308.66
2022-09-02T01:34:18.711Z,96307.56
2022-09-02T01:36:45.670Z,96295.75
2022-09-02T01:39:13.643Z,96301.72
2022-09-02T01:41:40.359Z,96305.41
2022-09-02T01:44:07.619Z,96304.59
2022-09-02T01:46:35.538Z,96303.59
2022-09-02T01:49:02.245Z,96298.41
2022-09-02T01:51:29.210Z,96302.09
2022-09-02T01:53:56.057Z,96304.13
2022-09-02T01:56:22.918Z,96300.84
2022-09-02T01:58:49.599Z,96300.84
2022-09-02T02:01:17.015Z,96302.50
2022-09-02T02:03:44.246Z,96295.47
2022-09-02T02:06:14.106Z,96291.13
2022-09-02T02:08:41.324Z,96290.13
2022-09-02T02:11:08.948Z,96298.16
2022-09-02T02:13:36.248Z,96293.00
2022-09-02T02:16:03.534Z,96293.34
2022-09-02T02:18:31.179Z,96296.22
2022-09-02T02:20:57.892Z,96289.38
2022-09-02T02:23:24.743Z,96282.56
2022-09-02T02:25:51.455Z,96286.28
2022-09-02T02:28:18.345Z,96284.22
2022-09-02T02:30:45.211Z,96283.59
2022-09-02T02:33:12.038Z,96274.91
2022-09-02T02:35:38.704Z,96282.31
2022-09-02T02:38:05.517Z,96287.88
2022-09-02T02:40:33.031Z,96285.00
2022-09-02T02:42:59.759Z,96282.69
2022-09-02T02:45:26.753Z,96285.19
2022-09-02T02:47:54.405Z,96285.56
2022-09-02T02:50:23.479Z,96277.91
2022-09-02T02:52:50.905Z,96275.63
2022-09-02T02:55:18.196Z,96272.47
2022-09-02T02:57:46.088Z,96274.50
2022-09-02T03:00:22.614Z,96269.13
2022-09-02T03:02:49.969Z,96272.22
2022-09-02T03:05:17.951Z,96269.09
2022-09-02T03:07:44.733Z,96266.56
2022-09-02T03:10:13.262Z,96264.28
2022-09-02T03:12:41.087Z,96261.81
2022-09-02T03:15:09.842Z,96261.16
2022-09-02T03:17:36.577Z,96266.06
2022-09-02T03:20:05.552Z,96269.09
2022-09-02T03:22:32.275Z,96265.13
2022-09-02T03:24:59.160Z,96265.53
2022-09-02T03:27:26.023Z,96264.91
2022-09-02T03:29:52.940Z,96264.25
2022-09-02T03:32:19.675Z,96263.22
2022-09-02T03:34:46.416Z,96258.25
2022-09-02T03:37:13.519Z,96257.59
2022-09-02T03:39:41.045Z,96258.81
2022-09-02T03:42:08.287Z,96256.69
2022-09-02T03:44:46.475Z,96259.09
2022-09-02T03:47:15.283Z,96261.31
2022-09-02T03:49:43.720Z,96265.19
2022-09-02T03:52:10.917Z,96259.19
2022-09-02T03:54:37.650Z,96263.06
2022-09-02T03:57:04.616Z,96267.97
2022-09-02T03:59:32.666Z,96268.34
2022-09-02T04:02:01.964Z,96266.03
2022-09-02T04:04:29.626Z,96270.72
2022-09-02T04:06:57.779Z,96269.81
2022-09-02T04:09:24.700Z,96269.34
2022-09-02T04:11:51.771Z,96281.22
2022-09-02T04:14:18.549Z,96267.94
2022-09-02T04:16:45.298Z,96276.34
2022-09-02T04:19:12.209Z,96275.84
2022-09-02T04:21:39.980Z,96271.88
2022-09-02T04:24:09.461Z,96275.94
2022-09-02T04:26:36.508Z,96278.31
2022-09-02T04:29:09.267Z,96276.38
2022-09-02T04:31:36.790Z,96276.47
2022-09-02T04:34:04.189Z,96283.34
2022-09-02T04:36:31.107Z,96280.03
2022-09-02T04:38:58.609Z,96272.38
2022-09-02T04:41:28.850Z,96281.59
2022-09-02T04:43:57.437Z,96285.25
2022-09-02T04:46:34.241Z,96291.97
2022-09-02T04:49:03.508Z,96279.31
2022-09-02T04:51:30.394Z,96284.84
2022-09-02T04:53:57.450Z,96281.88
2022-09-02T04:56:27.361Z,96283.59
2022-09-02T04:58:54.593Z,96286.16
2022-09-02T05:01:25.543Z,96292.31
2022-09-02T05:03:54.176Z,96293.34
2022-09-02T05:06:26.395Z,96288.19
2022-09-02T05:08:54.859Z,96287.41
2022-09-02T05:11:24.071Z,96296.78
2022-09-02T05:13:51.737Z,96292.78
2022-09-02T05:16:25.470Z,96292.97
2022-09-02T05:18:53.222Z,96298.13
2022-09-02T05:21:20.977Z,96289.47
2022-09-02T05:23:47.637Z,96293.97
2022-09-02T05:26:14.434Z,96294.66
2022-09-02T05:28:41.896Z,96290.94
2022-09-02T05:31:15.226Z,96293.63
2022-09-02T05:33:42.470Z,96292.63
2022-09-02T05:36:20.525Z,96289.44
2022-09-02T05:38:48.173Z,96296.53
2022-09-02T05:41:18.039Z,96291.16
2022-09-02T05:43:45.867Z,96285.50
2022-09-02T05:46:17.769Z,96285.56
2022-09-02T05:49:04.420Z,96285.09
2022-09-02T05:51:32.398Z,96281.03
2022-09-02T05:54:00.516Z,96285.97
2022-09-02T05:56:28.268Z,96290.34
2022-09-02T05:58:57.358Z,96291.59
2022-09-02T06:01:24.174Z,96284.06
2022-09-02T06:03:52.507Z,96283.81
2022-09-02T06:06:23.065Z,96284.31
2022-09-02T06:08:51.111Z,96279.28
2022-09-02T06:11:18.482Z,96275.78
2022-09-02T06:13:45.225Z,96285.22
2022-09-02T06:16:20.767Z,96279.25
2022-09-02T06:18:48.347Z,96281.19
2022-09-02T06:21:16.131Z,96284.97
2022-09-02T06:23:43.679Z,96276.97
2022-09-02T06:26:13.321Z,96269.16
2022-09-02T06:28:41.221Z,96269.13
2022-09-02T06:31:16.944Z,96270.56
2022-09-02T06:33:45.817Z,96267.47
2022-09-02T06:36:18.146Z,96268.28
2022-09-02T06:38:48.382Z,96269.31
2022-09-02T06:41:19.641Z,96261.19
2022-09-02T06:43:46.315Z,96261.31
2022-09-02T06:46:23.545Z,96263.59
2022-09-02T06:48:50.554Z,96258.97
2022-09-02T06:51:23.751Z,96262.09
2022-09-02T06:53:50.642Z,96262.06
2022-09-02T06:56:18.224Z,96265.06
2022-09-02T06:58:45.125Z,96265.31
2022-09-02T07:01:22.179Z,96262.22
2022-09-02T07:04:07.493Z,96260.94
2022-09-02T07:06:38.507Z,96265.09
2022-09-02T07:09:06.444Z,96258.16
2022-09-02T07:11:33.390Z,96259.03
2022-09-02T07:14:01.866Z,96255.41
2022-09-02T07:16:31.093Z,96261.22
2022-09-02T07:18:58.538Z,96265.84
2022-09-02T07:21:25.288Z,96260.16
2022-09-02T07:23:52.139Z,96253.59
2022-09-02T07:26:18.835Z,96261.28
2022-09-02T07:28:47.160Z,96260.00
2022-09-02T07:31:16.323Z,96256.84
2022-09-02T07:33:45.103Z,96258.88
2022-09-02T07:36:16.887Z,96253.59
2022-09-02T07:38:43.662Z,96252.66
2022-09-02T07:41:10.721Z,96252.56
2022-09-02T07:43:41.180Z,96249.78
2022-09-02T07:46:08.078Z,96254.44
2022-09-02T07:48:35.849Z,96254.44
2022-09-02T07:51:02.981Z,96258.66
2022-09-02T07:53:30.261Z,96258.97
2022-09-02T07:55:57.051Z,96256.66
2022-09-02T07:58:23.820Z,96258.41
2022-09-02T08:00:51.164Z,96259.59
2022-09-02T08:03:18.023Z,96261.78
2022-09-02T08:05:47.274Z,96258.84
2022-09-02T08:08:20.419Z,96261.78
2022-09-02T08:10:52.216Z,96264.97
2022-09-02T08:13:20.071Z,96271.47
2022-09-02T08:15:46.902Z,96267.31
2022-09-02T08:18:21.824Z,96263.84
2022-09-02T08:20:49.684Z,96254.56
2022-09-02T08:23:36.068Z,96261.69
2022-09-02T08:26:05.779Z,96254.56
2022-09-02T08:28:32.642Z,96258.59
2022-09-02T08:30:59.594Z,96251.47
2022-09-02T08:33:26.545Z,96248.06
2022-09-02T08:35:53.383Z,96249.56
2022-09-02T08:38:22.170Z,96243.72
2022-09-02T08:40:51.239Z,96245.69
2022-09-02T08:43:39.998Z,96252.28
2022-09-02T08:46:11.361Z,96251.91
2022-09-02T08:48:45.928Z,96250.38
2022-09-02T08:51:37.425Z,96240.34
2022-09-02T08:54:24.632Z,96239.91
2022-09-02T08:56:51.858Z,96235.38
2022-09-02T08:59:22.821Z,96237.63
2022-09-02T09:02:09.751Z,96230.47
2022-09-02T09:05:11.758Z,96236.69
2022-09-02T09:08:03.276Z,96229.72
2022-09-02T09:10:54.927Z,96230.63
2022-09-02T09:13:43.275Z,96231.25
2022-09-02T09:16:12.726Z,96230.44
2022-09-02T09:18:44.888Z,96238.09
2022-09-02T09:21:12.159Z,96230.09
2022-09-02T09:23:40.169Z,96236.19
2022-09-02T09:26:17.344Z,96227.78
2022-09-02T09:28:49.036Z,96221.09
2022-09-02T09:31:19.861Z,96219.50
2022-09-02T09:34:06.690Z,96211.84
2022-09-02T09:36:45.063Z,96216.06
2022-09-02T09:39:25.304Z,96202.84
2022-09-02T09:41:54.590Z,96200.16
2022-09-02T09:44:46.128Z,96207.84
2022-09-02T09:47:22.893Z,96201.66
2022-09-02T09:49:52.508Z,96201.03
2022-09-02T09:52:27.545Z,96193.13
2022-09-02T09:55:14.513Z,96205.53
2022-09-02T09:57:45.603Z,96198.34
2022-09-02T10:00:16.380Z,96205.28
2022-09-02T10:02:56.917Z,96193.28
2022-09-02T10:05:26.736Z,96197.94
2022-09-02T10:08:03.367Z,96187.75
2022-09-02T10:10:33.188Z,96189.56
2022-09-02T10:13:24.966Z,96194.44
2022-09-02T10:16:13.452Z,96184.22
2022-09-02T10:19:02.627Z,96191.84
2022-09-02T10:21:39.892Z,96190.72
2022-09-02T10:24:15.321Z,96196.25
2022-09-02T10:26:53.970Z,96199.81
2022-09-02T10:29:30.008Z,96195.81
2022-09-02T10:32:12.484Z,96201.84
2022-09-02T10:34:57.648Z,96196.50
2022-09-02T10:37:25.229Z,96192.69
2022-09-02T10:40:10.582Z,96189.09
2022-09-02T10:42:56.156Z,96190.22
2022-09-02T10:45:44.088Z,96180.66
2022-09-02T10:48:28.697Z,96192.31
2022-09-02T10:51:04.751Z,96185.03
2022-09-02T10:54:10.951Z,96181.00
2022-09-02T10:56:47.213Z,96175.97
2022-09-02T10:59:20.526Z,96172.66
2022-09-02T11:01:55.081Z,96170.81
2022-09-02T11:04:40.593Z,96169.94
2022-09-02T11:07:14.225Z,96171.41
2022-09-02T11:09:48.067Z,96170.19
2022-09-02T11:12:23.170Z,96170.69
2022-09-02T11:15:27.206Z,96164.34
2022-09-02T11:20:44.347Z,96158.03
2022-09-02T11:23:37.365Z,96150.97
2022-09-02T11:26:16.240Z,96151.41
2022-09-02T11:29:01.723Z,96158.66
2022-09-02T11:31:43.141Z,96166.38
2022-09-02T11:34:21.543Z,96159.31
2022-09-02T11:36:49.178Z,96151.91
2022-09-02T11:39:21.894Z,96149.97
2022-09-02T11:42:32.814Z,96153.03
2022-09-02T11:45:06.246Z,96143.63
2022-09-02T11:47:46.327Z,96143.16
2022-09-02T11:50:18.649Z,96140.16
2022-09-02T11:52:51.959Z,96145.22
2022-09-02T11:55:29.321Z,96152.78
2022-09-02T11:57:58.497Z,96144.41
2022-09-02T12:00:29.314Z,96143.63
2022-09-02T12:03:39.178Z,96134.00
2022-09-02T12:06:11.607Z,96131.50
2022-09-02T12:08:43.074Z,96122.28
2022-09-02T12:11:30.781Z,96135.16
2022-09-02T12:14:00.023Z,96130.78
2022-09-02T12:16:29.454Z,96123.97
2022-09-02T12:18:58.294Z,96132.47
2022-09-02T12:21:26.723Z,96120.84
2022-09-02T12:23:56.646Z,96119.06
2022-09-02T12:26:30.359Z,96123.53
2022-09-02T12:29:20.528Z,96115.81
2022-09-02T12:31:53.584Z,96103.06
2022-09-02T12:34:20.252Z,96106.59
2022-09-02T12:36:56.971Z,96107.19
2022-09-02T12:39:29.201Z,96110.66
2022-09-02T12:42:01.621Z,96106.56
2022-09-02T12:44:47.164Z,96105.75
2022-09-02T12:47:19.844Z,96093.81
2022-09-02T12:50:05.033Z,96093.38
2022-09-02T12:52:34.539Z,96081.41
2022-09-02T12:55:11.209Z,96089.34
2022-09-02T12:57:43.707Z,96081.75
2022-09-02T13:00:16.167Z,96081.59
2022-09-02T13:03:01.343Z,96084.56
2022-09-02T13:06:01.918Z,96079.97
2022-09-02T13:08:46.943Z,96082.69
2022-09-02T13:11:22.275Z,96077.88
2022-09-02T13:14:33.462Z,96073.06
2022-09-02T13:17:36.245Z,96076.72
2022-09-02T13:20:40.513Z,96066.16
2022-09-02T13:23:19.107Z,96066.34
2022-09-02T13:26:47.805Z,96073.34
2022-09-02T13:29:23.934Z,96072.19
2022-09-02T13:32:12.758Z,96070.13
2022-09-02T13:34:44.570Z,96072.63
2022-09-02T13:37:39.001Z,96076.88
2022-09-02T13:40:23.681Z,96068.66
2022-09-02T13:42:56.275Z,96077.91
2022-09-02T13:45:25.948Z,96073.19
2022-09-02T13:47:54.956Z,96072.94
2022-09-02T13:50:27.070Z,96074.03
2022-09-02T13:55:57.257Z,96072.63
2022-09-02T13:58:53.982Z,96070.22
2022-09-02T14:01:23.004Z,96072.13
2022-09-02T14:03:55.225Z,96071.53
2022-09-02T14:06:30.855Z,96062.34
2022-09-02T14:09:01.449Z,96062.69
2022-09-02T14:11:29.834Z,96065.31
2022-09-02T14:13:57.747Z,96070.34
2022-09-02T14:16:36.225Z,96066.13
2022-09-02T14:19:08.791Z,96064.38
2022-09-02T14:21:37.372Z,96072.28
2022-09-02T14:24:04.885Z,96074.75
2022-09-02T14:26:41.381Z,96072.28
2022-09-02T14:29:08.876Z,96071.97
2022-09-02T14:31:37.934Z,96068.75
2022-09-02T14:34:06.456Z,96076.78
2022-09-02T14:36:38.551Z,96073.72
2022-09-02T14:39:17.099Z,96071.97
2022-09-02T14:41:45.797Z,96071.38
2022-09-02T14:44:34.701Z,96065.88
2022-09-02T14:47:07.618Z,96058.78
2022-09-02T14:49:36.824Z,96069.84
2022-09-02T14:52:16.038Z,96067.16
2022-09-02T14:54:45.465Z,96055.84
2022-09-02T14:57:28.669Z,96068.81
2022-09-02T15:00:01.453Z,96062.78
2022-09-02T15:02:28.110Z,96064.81
2022-09-02T15:05:07.397Z,96064.09
2022-09-02T15:07:34.369Z,96064.00
2022-09-02T15:10:01.291Z,96076.34
2022-09-02T15:12:30.491Z,96076.13
2022-09-02T15:14:57.968Z,96082.09
2022-09-02T15:17:25.744Z,96074.81
2022-09-02T15:19:52.488Z,96079.63
2022-09-02T15:22:20.299Z,96081.84
2022-09-02T15:24:48.673Z,96074.81
2022-09-02T15:27:15.831Z,96069.16
2022-09-02T15:29:48.565Z,96068.94
2022-09-02T15:32:15.439Z,96065.50
2022-09-02T15:34:42.335Z,96069.88
2022-09-02T15:37:12.859Z,96070.22
2022-09-02T15:39:40.342Z,96065.38
2022-09-02T15:42:07.283Z,96065.38
2022-09-02T15:44:34.155Z,96068.56
2022-09-02T15:47:00.964Z,96069.38
2022-09-02T15:49:27.857Z,96072.22
2022-09-02T15:51:55.327Z,96069.75
2022-09-02T15:54:24.286Z,96071.88
2022-09-02T15:56:56.019Z,96070.00
2022-09-02T15:59:23.465Z,96074.78
2022-09-02T16:01:55.103Z,96071.38
2022-09-02T16:04:22.317Z,96060.56
2022-09-02T16:06:52.401Z,96061.13
2022-09-02T16:09:19.766Z,96069.91
2022-09-02T16:11:49.722Z,96065.44
2022-09-02T16:14:20.479Z,96070.31
2022-09-02T16:16:49.245Z,96068.88
2022-09-02T16:19:16.400Z,96072.50
2022-09-02T16:21:43.076Z,96076.72
2022-09-02T16:24:10.090Z,96069.66
2022-09-02T16:26:39.474Z,96076.09
2022-09-02T16:29:09.999Z,96072.84
2022-09-02T16:31:40.627Z,96077.53
2022-09-02T16:34:10.316Z,96077.38
2022-09-02T16:36:40.327Z,96076.66
2022-09-02T16:39:08.448Z,96077.53
2022-09-02T16:41:43.962Z,96076.00
2022-09-02T16:44:16.982Z,96074.38
2022-09-02T16:46:45.050Z,96075.03
2022-09-02T16:49:14.511Z,96070.41
2022-09-02T16:51:41.369Z,96081.88
2022-09-02T16:54:09.601Z,96078.56
2022-09-02T16:56:44.794Z,96073.84
2022-09-02T16:59:12.871Z,96080.94
2022-09-02T17:01:41.046Z,96073.75
2022-09-02T17:04:09.022Z,96075.47
2022-09-02T17:06:39.934Z,96088.19
2022-09-02T17:09:09.081Z,96082.91
2022-09-02T17:11:39.712Z,96087.13
2022-09-02T17:14:16.504Z,96091.31
2022-09-02T17:16:49.022Z,96093.47
2022-09-02T17:19:21.848Z,96098.06
2022-09-02T17:21:54.106Z,96096.84
2022-09-02T17:24:23.392Z,96091.50
2022-09-02T17:26:52.253Z,96094.44
2022-09-02T17:29:47.573Z,96092.63
2022-09-02T17:32:08.393Z,96086.66
2022-09-02T17:34:35.118Z,96094.63
2022-09-02T17:37:01.981Z,96095.69
2022-09-02T17:39:28.731Z,96101.91
2022-09-02T17:41:55.583Z,96103.00
2022-09-02T17:44:42.656Z,96104.28
2022-09-02T17:47:20.141Z,96114.66
2022-09-02T17:49:47.963Z,96114.50
2022-09-02T17:52:23.401Z,96120.94
2022-09-02T17:54:52.351Z,96116.38
2022-09-02T17:57:43.165Z,96126.31
2022-09-02T18:00:17.471Z,96128.38
2022-09-02T18:03:13.073Z,96131.28
2022-09-02T18:05:44.152Z,96128.81
2022-09-02T18:08:28.858Z,96128.22
2022-09-02T18:10:58.510Z,96132.75
2022-09-02T18:13:31.892Z,96143.72
2022-09-02T18:16:20.911Z,96138.56
2022-09-02T18:19:00.104Z,96141.69
2022-09-02T18:21:41.576Z,96154.50
2022-09-02T18:24:19.815Z,96155.13
2022-09-02T18:27:15.715Z,96151.81
2022-09-02T18:30:00.498Z,96162.34
2022-09-02T18:32:45.725Z,96158.84
2022-09-02T18:35:31.776Z,96164.00
2022-09-02T18:38:28.295Z,96169.81
2022-09-02T18:41:05.838Z,96170.63
2022-09-02T18:43:50.943Z,96172.50
2022-09-02T18:46:19.498Z,96172.28
2022-09-02T18:48:53.295Z,96176.00
2022-09-02T18:51:42.122Z,96174.34
2022-09-02T18:54:22.852Z,96179.31
2022-09-02T18:56:55.759Z,96182.41
2022-09-02T18:59:43.245Z,96181.78
2022-09-02T19:02:23.910Z,96181.78
2022-09-02T19:04:50.726Z,96178.28
2022-09-02T19:07:38.691Z,96181.16
2022-09-02T19:10:06.273Z,96173.31
2022-09-02T19:12:36.315Z,96176.63
2022-09-02T19:15:08.049Z,96182.44
2022-09-02T19:17:34.961Z,96182.59
2022-09-02T19:20:02.049Z,96174.75
2022-09-02T19:22:30.516Z,96187.16
2022-09-02T19:25:02.986Z,96190.50
2022-09-02T19:27:33.831Z,96190.50
2022-09-02T19:30:12.504Z,96193.56
2022-09-02T19:32:43.945Z,96187.59
2022-09-02T19:35:19.150Z,96191.09
2022-09-02T19:37:47.964Z,96190.88
2022-09-02T19:40:20.201Z,96191.28
2022-09-02T19:42:47.252Z,96187.38
2022-09-02T19:45:16.381Z,96190.47
2022-09-02T19:48:06.427Z,96197.91
2022-09-02T19:50:30.340Z,96191.91
2022-09-02T19:52:57.349Z,96200.34
2022-09-02T19:55:24.182Z,96204.91
2022-09-02T19:57:53.315Z,96209.66
2022-09-02T20:00:20.357Z,96206.16
2022-09-02T20:02:47.016Z,96202.22
2022-09-02T20:05:14.375Z,96212.31
2022-09-02T20:07:41.784Z,96211.06
2022-09-02T20:10:09.508Z,96214.41
2022-09-02T20:12:36.518Z,96216.06
2022-09-02T20:15:04.969Z,96218.34
2022-09-02T20:17:32.421Z,96218.53
2022-09-02T20:20:01.322Z,96226.81
2022-09-02T20:22:30.186Z,96215.84
2022-09-02T20:24:58.246Z,96216.06
2022-09-02T20:28:04.735Z,96208.81
2022-09-02T20:30:36.096Z,96211.06
2022-09-02T20:33:13.954Z,96214.19
2022-09-02T20:35:43.369Z,96217.53
2022-09-02T20:38:48.883Z,96222.47
2022-09-02T20:41:21.597Z,96211.50
2022-09-02T20:43:54.639Z,96215.00
2022-09-02T20:46:39.357Z,96209.81
2022-09-02T20:49:21.578Z,96212.91
2022-09-02T20:51:53.386Z,96205.28
2022-09-02T20:54:48.661Z,96202.78
2022-09-02T20:57:21.722Z,96204.63
2022-09-02T21:00:09.721Z,96200.28
2022-09-02T21:02:51.269Z,96196.19
2022-09-02T21:05:24.390Z,96192.44
2022-09-02T21:08:03.911Z,96208.16
2022-09-02T21:10:39.015Z,96202.38
2022-09-02T21:13:11.613Z,96204.41
2022-09-02T21:16:00.222Z,96202.13
2022-09-02T21:18:41.705Z,96198.81
2022-09-02T21:21:51.131Z,96203.53
2022-09-02T21:24:38.849Z,96195.66
2022-09-02T21:27:14.699Z,96192.53
2022-09-02T21:29:59.010Z,96189.03
2022-09-02T21:32:42.149Z,96186.16
2022-09-02T21:35:21.419Z,96191.06
2022-09-02T21:37:53.065Z,96188.59
2022-09-02T21:40:21.704Z,96186.31
2022-09-02T21:43:14.713Z,96170.84
2022-09-02T21:46:08.162Z,96172.44
2022-09-02T21:49:01.015Z,96164.53
2022-09-02T21:51:41.205Z,96168.59
2022-09-02T21:54:49.279Z,96173.53
2022-09-02T21:57:32.863Z,96173.53
2022-09-02T22:00:08.225Z,96170.19
2022-09-02T22:02:52.594Z,96170.59
2022-09-02T22:05:28.899Z,96177.59
2022-09-02T22:08:17.373Z,96183.59
2022-09-02T22:11:09.983Z,96188.03
2022-09-02T22:13:41.983Z,96191.72
2022-09-02T22:16:19.007Z,96181.00
2022-09-02T22:18:55.447Z,96174.75
2022-09-02T22:21:47.173Z,96175.91
2022-09-02T22:24:22.440Z,96169.81
2022-09-02T22:26:53.370Z,96177.78
2022-09-02T22:29:29.084Z,96173.38
2022-09-02T22:32:00.486Z,96171.44
2022-09-02T22:34:30.290Z,96182.00
2022-09-02T22:37:02.713Z,96176.81
2022-09-02T22:39:44.521Z,96175.53
2022-09-02T22:42:29.562Z,96178.41
2022-09-02T22:45:27.076Z,96187.63
2022-09-02T22:48:18.897Z,96185.53
2022-09-02T22:51:10.410Z,96188.63
2022-09-02T22:53:37.103Z,96181.00
2022-09-02T22:56:11.451Z,96178.97
2022-09-02T22:59:11.011Z,96183.31
2022-09-02T23:01:57.292Z,96168.06
2022-09-02T23:04:47.553Z,96167.50
2022-09-02T23:07:14.461Z,96166.09
2022-09-02T23:09:41.183Z,96167.75
2022-09-02T23:12:40.296Z,96162.97
2022-09-02T23:15:27.305Z,96168.06
2022-09-02T23:18:09.680Z,96167.81
2022-09-02T23:20:45.382Z,96165.53
2022-09-02T23:23:39.109Z,96173.16
2022-09-02T23:26:26.022Z,96177.06
2022-09-02T23:29:16.606Z,96174.56
2022-09-02T23:31:47.563Z,96171.63
2022-09-02T23:34:34.452Z,96187.25
2022-09-02T23:37:25.198Z,96177.94
2022-09-02T23:40:22.566Z,96184.31
2022-09-02T23:42:50.186Z,96182.66
2022-09-02T23:45:21.978Z,96183.66
2022-09-02T23:48:03.616Z,96179.69
2022-09-02T23:50:36.085Z,96175.75
2022-09-02T23:53:11.939Z,96170.78
2022-09-02T23:56:10.081Z,96166.81
2022-09-02T23:59:00.832Z,96166.56
